sensor_id;sensor_type;location;lat;lon;timestamp;P1;durP1;ratioP1;P2;durP2;ratioP2
21562;SDS011;10942;47.894;11.424;2024-03-07T00:00:47;9.07;;;7.00;;
21562;SDS011;10942;47.894;11.424;2024-03-07T00:03:13;9.18;;;6.78;;
21562;SDS011;10942;47.894;11.424;2024-03-07T00:05:38;9.13;;;6.47;;
21562;SDS011;10942;47.894;11.424;2024-03-07T00:08:04;9.32;;;6.63;;
21562;SDS011;10942;47.894;11.424;2024-03-07T00:10:31;9.65;;;6.82;;
21562;SDS011;10942;47.894;11.424;2024-03-07T00:12:57;9.52;;;6.25;;
21562;SDS011;10942;47.894;11.424;2024-03-07T00:15:22;9.32;;;6.18;;
21562;SDS011;10942;47.894;11.424;2024-03-07T00:17:48;9.77;;;6.40;;
21562;SDS011;10942;47.894;11.424;2024-03-07T00:20:14;9.05;;;6.68;;
21562;SDS011;10942;47.894;11.424;2024-03-07T00:22:40;9.35;;;6.40;;
21562;SDS011;10942;47.894;11.424;2024-03-07T00:25:07;9.50;;;6.85;;
21562;SDS011;10942;47.894;11.424;2024-03-07T00:27:34;7.88;;;5.97;;
21562;SDS011;10942;47.894;11.424;2024-03-07T00:30:04;8.82;;;6.32;;
21562;SDS011;10942;47.894;11.424;2024-03-07T00:32:31;10.15;;;6.97;;
21562;SDS011;10942;47.894;11.424;2024-03-07T00:35:01;9.68;;;7.05;;
21562;SDS011;10942;47.894;11.424;2024-03-07T00:37:30;9.45;;;6.70;;
21562;SDS011;10942;47.894;11.424;2024-03-07T00:39:56;9.05;;;6.35;;
21562;SDS011;10942;47.894;11.424;2024-03-07T00:42:22;9.05;;;6.65;;
21562;SDS011;10942;47.894;11.424;2024-03-07T00:44:48;8.68;;;6.38;;
21562;SDS011;10942;47.894;11.424;2024-03-07T00:47:16;10.40;;;7.22;;
21562;SDS011;10942;47.894;11.424;2024-03-07T00:49:45;9.57;;;6.38;;
21562;SDS011;10942;47.894;11.424;2024-03-07T00:52:12;9.68;;;6.63;;
21562;SDS011;10942;47.894;11.424;2024-03-07T00:54:38;10.02;;;6.72;;
21562;SDS011;10942;47.894;11.424;2024-03-07T00:57:04;9.98;;;6.68;;
21562;SDS011;10942;47.894;11.424;2024-03-07T00:59:30;10.63;;;7.22;;
21562;SDS011;10942;47.894;11.424;2024-03-07T01:01:55;9.43;;;6.93;;
21562;SDS011;10942;47.894;11.424;2024-03-07T01:04:21;8.70;;;6.43;;
21562;SDS011;10942;47.894;11.424;2024-03-07T01:06:47;10.48;;;7.53;;
21562;SDS011;10942;47.894;11.424;2024-03-07T01:09:13;10.35;;;7.40;;
21562;SDS011;10942;47.894;11.424;2024-03-07T01:11:43;9.88;;;7.28;;
21562;SDS011;10942;47.894;11.424;2024-03-07T01:14:13;11.30;;;7.15;;
21562;SDS011;10942;47.894;11.424;2024-03-07T01:16:39;10.07;;;7.05;;
21562;SDS011;10942;47.894;11.424;2024-03-07T01:19:04;9.75;;;7.03;;
21562;SDS011;10942;47.894;11.424;2024-03-07T01:21:33;9.77;;;6.65;;
21562;SDS011;10942;47.894;11.424;2024-03-07T01:24:00;9.77;;;7.10;;
21562;SDS011;10942;47.894;11.424;2024-03-07T01:26:29;9.15;;;6.82;;
21562;SDS011;10942;47.894;11.424;2024-03-07T01:28:58;9.98;;;7.22;;
21562;SDS011;10942;47.894;11.424;2024-03-07T01:31:23;9.48;;;6.93;;
21562;SDS011;10942;47.894;11.424;2024-03-07T01:33:50;10.68;;;7.35;;
21562;SDS011;10942;47.894;11.424;2024-03-07T01:36:16;10.27;;;7.18;;
21562;SDS011;10942;47.894;11.424;2024-03-07T01:38:43;10.48;;;7.60;;
21562;SDS011;10942;47.894;11.424;2024-03-07T01:41:09;11.18;;;7.80;;
21562;SDS011;10942;47.894;11.424;2024-03-07T01:43:34;11.07;;;7.40;;
21562;SDS011;10942;47.894;11.424;2024-03-07T01:46:00;9.88;;;7.28;;
21562;SDS011;10942;47.894;11.424;2024-03-07T01:48:27;12.32;;;7.88;;
21562;SDS011;10942;47.894;11.424;2024-03-07T01:50:57;10.27;;;6.80;;
21562;SDS011;10942;47.894;11.424;2024-03-07T01:53:27;11.35;;;8.13;;
21562;SDS011;10942;47.894;11.424;2024-03-07T01:55:53;9.75;;;6.72;;
21562;SDS011;10942;47.894;11.424;2024-03-07T01:58:20;10.57;;;7.43;;
21562;SDS011;10942;47.894;11.424;2024-03-07T02:00:47;10.32;;;7.50;;
21562;SDS011;10942;47.894;11.424;2024-03-07T02:03:13;11.18;;;7.10;;
21562;SDS011;10942;47.894;11.424;2024-03-07T02:05:39;9.27;;;6.85;;
21562;SDS011;10942;47.894;11.424;2024-03-07T02:08:06;11.02;;;7.40;;
21562;SDS011;10942;47.894;11.424;2024-03-07T02:10:31;9.05;;;6.93;;
21562;SDS011;10942;47.894;11.424;2024-03-07T02:12:57;10.15;;;7.05;;
21562;SDS011;10942;47.894;11.424;2024-03-07T02:15:23;9.20;;;6.47;;
21562;SDS011;10942;47.894;11.424;2024-03-07T02:17:48;9.98;;;6.85;;
21562;SDS011;10942;47.894;11.424;2024-03-07T02:20:14;10.95;;;7.43;;
21562;SDS011;10942;47.894;11.424;2024-03-07T02:22:41;10.35;;;6.80;;
21562;SDS011;10942;47.894;11.424;2024-03-07T02:25:07;10.55;;;6.82;;
21562;SDS011;10942;47.894;11.424;2024-03-07T02:27:36;10.73;;;6.95;;
21562;SDS011;10942;47.894;11.424;2024-03-07T02:30:02;11.55;;;7.60;;
21562;SDS011;10942;47.894;11.424;2024-03-07T02:32:29;10.93;;;7.22;;
21562;SDS011;10942;47.894;11.424;2024-03-07T02:34:54;10.93;;;7.75;;
21562;SDS011;10942;47.894;11.424;2024-03-07T02:37:20;10.98;;;7.57;;
21562;SDS011;10942;47.894;11.424;2024-03-07T02:39:46;8.88;;;6.60;;
21562;SDS011;10942;47.894;11.424;2024-03-07T02:42:11;11.25;;;7.25;;
21562;SDS011;10942;47.894;11.424;2024-03-07T02:44:37;11.75;;;7.63;;
21562;SDS011;10942;47.894;11.424;2024-03-07T02:47:06;11.05;;;7.68;;
21562;SDS011;10942;47.894;11.424;2024-03-07T02:49:32;10.77;;;7.28;;
21562;SDS011;10942;47.894;11.424;2024-03-07T02:51:57;11.13;;;6.95;;
21562;SDS011;10942;47.894;11.424;2024-03-07T02:54:23;10.65;;;7.35;;
21562;SDS011;10942;47.894;11.424;2024-03-07T02:56:49;11.50;;;7.45;;
21562;SDS011;10942;47.894;11.424;2024-03-07T02:59:15;11.25;;;6.80;;
21562;SDS011;10942;47.894;11.424;2024-03-07T03:01:41;11.48;;;7.82;;
21562;SDS011;10942;47.894;11.424;2024-03-07T03:04:07;10.90;;;7.70;;
21562;SDS011;10942;47.894;11.424;2024-03-07T03:06:33;12.23;;;7.97;;
21562;SDS011;10942;47.894;11.424;2024-03-07T03:08:58;11.80;;;7.88;;
21562;SDS011;10942;47.894;11.424;2024-03-07T03:11:24;9.68;;;7.20;;
21562;SDS011;10942;47.894;11.424;2024-03-07T03:13:51;11.40;;;7.70;;
21562;SDS011;10942;47.894;11.424;2024-03-07T03:16:17;11.75;;;7.70;;
21562;SDS011;10942;47.894;11.424;2024-03-07T03:18:42;11.77;;;8.00;;
21562;SDS011;10942;47.894;11.424;2024-03-07T03:21:08;11.68;;;7.68;;
21562;SDS011;10942;47.894;11.424;2024-03-07T03:23:34;13.23;;;8.07;;
21562;SDS011;10942;47.894;11.424;2024-03-07T03:26:00;11.63;;;7.28;;
21562;SDS011;10942;47.894;11.424;2024-03-07T03:28:25;10.88;;;7.57;;
21562;SDS011;10942;47.894;11.424;2024-03-07T03:30:51;12.52;;;7.60;;
21562;SDS011;10942;47.894;11.424;2024-03-07T03:33:18;14.48;;;8.68;;
21562;SDS011;10942;47.894;11.424;2024-03-07T03:35:46;13.05;;;7.93;;
21562;SDS011;10942;47.894;11.424;2024-03-07T03:38:12;13.75;;;8.15;;
21562;SDS011;10942;47.894;11.424;2024-03-07T03:40:38;13.20;;;7.90;;
21562;SDS011;10942;47.894;11.424;2024-03-07T03:43:04;13.00;;;8.30;;
21562;SDS011;10942;47.894;11.424;2024-03-07T03:45:29;13.82;;;7.90;;
21562;SDS011;10942;47.894;11.424;2024-03-07T03:47:57;11.82;;;8.15;;
21562;SDS011;10942;47.894;11.424;2024-03-07T03:50:23;13.85;;;8.52;;
21562;SDS011;10942;47.894;11.424;2024-03-07T03:52:48;13.50;;;8.13;;
21562;SDS011;10942;47.894;11.424;2024-03-07T03:55:14;14.15;;;8.30;;
21562;SDS011;10942;47.894;11.424;2024-03-07T03:57:41;17.23;;;8.82;;
21562;SDS011;10942;47.894;11.424;2024-03-07T04:00:08;16.60;;;9.48;;
21562;SDS011;10942;47.894;11.424;2024-03-07T04:02:42;16.88;;;8.95;;
21562;SDS011;10942;47.894;11.424;2024-03-07T04:05:09;15.55;;;8.63;;
21562;SDS011;10942;47.894;11.424;2024-03-07T04:07:36;17.40;;;9.55;;
21562;SDS011;10942;47.894;11.424;2024-03-07T04:10:02;19.00;;;9.13;;
21562;SDS011;10942;47.894;11.424;2024-03-07T04:12:32;16.60;;;9.30;;
21562;SDS011;10942;47.894;11.424;2024-03-07T04:14:58;18.95;;;9.70;;
21562;SDS011;10942;47.894;11.424;2024-03-07T04:17:25;21.42;;;10.07;;
21562;SDS011;10942;47.894;11.424;2024-03-07T04:19:50;20.33;;;9.77;;
21562;SDS011;10942;47.894;11.424;2024-03-07T04:22:16;17.85;;;9.13;;
21562;SDS011;10942;47.894;11.424;2024-03-07T04:24:44;21.23;;;9.95;;
21562;SDS011;10942;47.894;11.424;2024-03-07T04:27:10;22.13;;;11.18;;
21562;SDS011;10942;47.894;11.424;2024-03-07T04:29:36;31.48;;;15.10;;
21562;SDS011;10942;47.894;11.424;2024-03-07T04:32:02;24.13;;;12.25;;
21562;SDS011;10942;47.894;11.424;2024-03-07T04:34:29;23.05;;;11.48;;
21562;SDS011;10942;47.894;11.424;2024-03-07T04:36:58;25.88;;;12.55;;
21562;SDS011;10942;47.894;11.424;2024-03-07T04:39:29;22.33;;;12.13;;
21562;SDS011;10942;47.894;11.424;2024-03-07T04:42:04;23.40;;;11.07;;
21562;SDS011;10942;47.894;11.424;2024-03-07T04:44:33;19.45;;;11.23;;
21562;SDS011;10942;47.894;11.424;2024-03-07T04:47:04;22.92;;;12.30;;
21562;SDS011;10942;47.894;11.424;2024-03-07T04:49:32;25.83;;;11.50;;
21562;SDS011;10942;47.894;11.424;2024-03-07T04:51:59;23.25;;;12.25;;
21562;SDS011;10942;47.894;11.424;2024-03-07T04:54:26;26.30;;;12.70;;
21562;SDS011;10942;47.894;11.424;2024-03-07T04:56:53;23.90;;;11.55;;
21562;SDS011;10942;47.894;11.424;2024-03-07T04:59:19;22.92;;;11.38;;
21562;SDS011;10942;47.894;11.424;2024-03-07T05:01:46;25.30;;;12.52;;
21562;SDS011;10942;47.894;11.424;2024-03-07T05:04:13;20.83;;;10.25;;
21562;SDS011;10942;47.894;11.424;2024-03-07T05:06:39;22.08;;;11.38;;
21562;SDS011;10942;47.894;11.424;2024-03-07T05:09:07;20.50;;;10.65;;
21562;SDS011;10942;47.894;11.424;2024-03-07T05:11:34;19.15;;;10.85;;
21562;SDS011;10942;47.894;11.424;2024-03-07T05:14:01;20.20;;;10.38;;
21562;SDS011;10942;47.894;11.424;2024-03-07T05:16:28;20.48;;;10.75;;
21562;SDS011;10942;47.894;11.424;2024-03-07T05:18:55;20.25;;;10.73;;
21562;SDS011;10942;47.894;11.424;2024-03-07T05:21:27;21.08;;;10.93;;
21562;SDS011;10942;47.894;11.424;2024-03-07T05:24:02;19.45;;;10.45;;
21562;SDS011;10942;47.894;11.424;2024-03-07T05:26:28;19.85;;;10.77;;
21562;SDS011;10942;47.894;11.424;2024-03-07T05:29:00;19.52;;;9.93;;
21562;SDS011;10942;47.894;11.424;2024-03-07T05:31:30;18.80;;;10.15;;
21562;SDS011;10942;47.894;11.424;2024-03-07T05:33:59;21.65;;;11.48;;
21562;SDS011;10942;47.894;11.424;2024-03-07T05:36:28;19.88;;;10.27;;
21562;SDS011;10942;47.894;11.424;2024-03-07T05:38:57;22.02;;;11.00;;
21562;SDS011;10942;47.894;11.424;2024-03-07T05:41:24;22.58;;;11.27;;
21562;SDS011;10942;47.894;11.424;2024-03-07T05:43:53;21.58;;;10.77;;
21562;SDS011;10942;47.894;11.424;2024-03-07T05:46:19;21.10;;;10.70;;
21562;SDS011;10942;47.894;11.424;2024-03-07T05:48:45;18.88;;;10.90;;
21562;SDS011;10942;47.894;11.424;2024-03-07T05:51:11;21.17;;;10.48;;
21562;SDS011;10942;47.894;11.424;2024-03-07T05:53:37;21.50;;;11.23;;
21562;SDS011;10942;47.894;11.424;2024-03-07T05:56:03;20.30;;;11.35;;
21562;SDS011;10942;47.894;11.424;2024-03-07T05:58:29;22.50;;;11.20;;
21562;SDS011;10942;47.894;11.424;2024-03-07T06:00:54;22.52;;;11.60;;
21562;SDS011;10942;47.894;11.424;2024-03-07T06:03:20;26.73;;;14.25;;
21562;SDS011;10942;47.894;11.424;2024-03-07T06:05:46;23.58;;;11.98;;
21562;SDS011;10942;47.894;11.424;2024-03-07T06:08:16;25.90;;;11.00;;
21562;SDS011;10942;47.894;11.424;2024-03-07T06:10:43;26.80;;;14.43;;
21562;SDS011;10942;47.894;11.424;2024-03-07T06:13:13;22.17;;;10.80;;
21562;SDS011;10942;47.894;11.424;2024-03-07T06:15:43;21.67;;;10.65;;
21562;SDS011;10942;47.894;11.424;2024-03-07T06:18:09;25.35;;;11.43;;
21562;SDS011;10942;47.894;11.424;2024-03-07T06:20:36;25.58;;;12.05;;
21562;SDS011;10942;47.894;11.424;2024-03-07T06:23:02;23.00;;;11.07;;
21562;SDS011;10942;47.894;11.424;2024-03-07T06:25:31;20.83;;;10.40;;
21562;SDS011;10942;47.894;11.424;2024-03-07T06:28:00;22.65;;;10.63;;
21562;SDS011;10942;47.894;11.424;2024-03-07T06:30:34;27.23;;;11.93;;
21562;SDS011;10942;47.894;11.424;2024-03-07T06:33:01;28.30;;;12.02;;
21562;SDS011;10942;47.894;11.424;2024-03-07T06:35:26;24.75;;;12.48;;
21562;SDS011;10942;47.894;11.424;2024-03-07T06:37:52;25.73;;;12.75;;
21562;SDS011;10942;47.894;11.424;2024-03-07T06:40:18;25.38;;;10.90;;
21562;SDS011;10942;47.894;11.424;2024-03-07T06:42:47;24.77;;;11.55;;
21562;SDS011;10942;47.894;11.424;2024-03-07T06:45:18;23.42;;;11.13;;
21562;SDS011;10942;47.894;11.424;2024-03-07T06:47:44;27.48;;;11.55;;
21562;SDS011;10942;47.894;11.424;2024-03-07T06:50:09;23.20;;;12.27;;
21562;SDS011;10942;47.894;11.424;2024-03-07T06:52:39;24.58;;;11.73;;
21562;SDS011;10942;47.894;11.424;2024-03-07T06:55:05;29.98;;;11.63;;
21562;SDS011;10942;47.894;11.424;2024-03-07T06:57:33;24.42;;;12.23;;
21562;SDS011;10942;47.894;11.424;2024-03-07T07:00:02;26.60;;;12.18;;
21562;SDS011;10942;47.894;11.424;2024-03-07T07:02:36;26.85;;;11.63;;
21562;SDS011;10942;47.894;11.424;2024-03-07T07:05:06;28.85;;;14.05;;
21562;SDS011;10942;47.894;11.424;2024-03-07T07:07:38;31.27;;;12.45;;
21562;SDS011;10942;47.894;11.424;2024-03-07T07:10:06;29.15;;;12.35;;
21562;SDS011;10942;47.894;11.424;2024-03-07T07:12:38;36.75;;;15.07;;
21562;SDS011;10942;47.894;11.424;2024-03-07T07:15:04;37.10;;;13.80;;
21562;SDS011;10942;47.894;11.424;2024-03-07T07:17:30;34.40;;;14.20;;
21562;SDS011;10942;47.894;11.424;2024-03-07T07:19:58;38.50;;;13.98;;
21562;SDS011;10942;47.894;11.424;2024-03-07T07:22:25;36.63;;;14.35;;
21562;SDS011;10942;47.894;11.424;2024-03-07T07:24:51;33.13;;;14.52;;
21562;SDS011;10942;47.894;11.424;2024-03-07T07:27:17;34.03;;;16.02;;
21562;SDS011;10942;47.894;11.424;2024-03-07T07:29:44;40.92;;;16.52;;
21562;SDS011;10942;47.894;11.424;2024-03-07T07:32:10;37.85;;;15.25;;
21562;SDS011;10942;47.894;11.424;2024-03-07T07:34:39;44.03;;;17.23;;
21562;SDS011;10942;47.894;11.424;2024-03-07T07:37:04;38.83;;;15.23;;
21562;SDS011;10942;47.894;11.424;2024-03-07T07:39:30;39.33;;;14.93;;
21562;SDS011;10942;47.894;11.424;2024-03-07T07:41:56;43.70;;;17.17;;
21562;SDS011;10942;47.894;11.424;2024-03-07T07:44:22;43.97;;;18.13;;
21562;SDS011;10942;47.894;11.424;2024-03-07T07:46:48;39.90;;;17.05;;
21562;SDS011;10942;47.894;11.424;2024-03-07T07:49:14;44.50;;;17.02;;
21562;SDS011;10942;47.894;11.424;2024-03-07T07:51:41;46.45;;;15.55;;
21562;SDS011;10942;47.894;11.424;2024-03-07T07:54:07;42.10;;;16.95;;
21562;SDS011;10942;47.894;11.424;2024-03-07T07:56:34;41.85;;;16.23;;
21562;SDS011;10942;47.894;11.424;2024-03-07T07:59:00;41.65;;;16.05;;
21562;SDS011;10942;47.894;11.424;2024-03-07T08:01:29;43.70;;;16.23;;
21562;SDS011;10942;47.894;11.424;2024-03-07T08:03:55;47.90;;;19.52;;
21562;SDS011;10942;47.894;11.424;2024-03-07T08:06:21;46.55;;;18.52;;
21562;SDS011;10942;47.894;11.424;2024-03-07T08:08:46;48.78;;;19.50;;
21562;SDS011;10942;47.894;11.424;2024-03-07T08:11:12;49.25;;;19.30;;
21562;SDS011;10942;47.894;11.424;2024-03-07T08:13:39;46.70;;;19.67;;
21562;SDS011;10942;47.894;11.424;2024-03-07T08:16:05;51.58;;;21.48;;
21562;SDS011;10942;47.894;11.424;2024-03-07T08:18:31;62.83;;;24.70;;
21562;SDS011;10942;47.894;11.424;2024-03-07T08:20:57;63.17;;;27.00;;
21562;SDS011;10942;47.894;11.424;2024-03-07T08:23:23;68.05;;;29.45;;
21562;SDS011;10942;47.894;11.424;2024-03-07T08:25:51;75.60;;;32.90;;
21562;SDS011;10942;47.894;11.424;2024-03-07T08:28:17;77.88;;;36.70;;
21562;SDS011;10942;47.894;11.424;2024-03-07T08:30:43;74.75;;;36.20;;
21562;SDS011;10942;47.894;11.424;2024-03-07T08:33:09;79.97;;;37.63;;
21562;SDS011;10942;47.894;11.424;2024-03-07T08:35:35;82.20;;;37.67;;
21562;SDS011;10942;47.894;11.424;2024-03-07T08:38:01;78.78;;;37.03;;
21562;SDS011;10942;47.894;11.424;2024-03-07T08:40:28;75.35;;;35.35;;
21562;SDS011;10942;47.894;11.424;2024-03-07T08:42:59;82.28;;;38.70;;
21562;SDS011;10942;47.894;11.424;2024-03-07T08:45:25;85.80;;;40.55;;
21562;SDS011;10942;47.894;11.424;2024-03-07T08:47:53;91.50;;;44.97;;
21562;SDS011;10942;47.894;11.424;2024-03-07T08:50:20;77.10;;;37.67;;
21562;SDS011;10942;47.894;11.424;2024-03-07T08:52:46;83.60;;;45.63;;
21562;SDS011;10942;47.894;11.424;2024-03-07T08:55:13;77.18;;;36.45;;
21562;SDS011;10942;47.894;11.424;2024-03-07T08:57:50;76.30;;;37.30;;
21562;SDS011;10942;47.894;11.424;2024-03-07T09:00:16;76.85;;;38.92;;
21562;SDS011;10942;47.894;11.424;2024-03-07T09:02:49;78.57;;;37.38;;
21562;SDS011;10942;47.894;11.424;2024-03-07T09:05:19;73.35;;;38.30;;
21562;SDS011;10942;47.894;11.424;2024-03-07T09:07:47;83.22;;;41.10;;
21562;SDS011;10942;47.894;11.424;2024-03-07T09:10:14;79.88;;;39.60;;
21562;SDS011;10942;47.894;11.424;2024-03-07T09:12:40;78.03;;;36.75;;
21562;SDS011;10942;47.894;11.424;2024-03-07T09:15:06;78.00;;;39.30;;
21562;SDS011;10942;47.894;11.424;2024-03-07T09:17:32;81.53;;;39.60;;
21562;SDS011;10942;47.894;11.424;2024-03-07T09:19:58;69.15;;;36.45;;
21562;SDS011;10942;47.894;11.424;2024-03-07T09:22:24;79.90;;;42.88;;
21562;SDS011;10942;47.894;11.424;2024-03-07T09:24:50;72.65;;;37.60;;
21562;SDS011;10942;47.894;11.424;2024-03-07T09:27:16;74.13;;;36.80;;
21562;SDS011;10942;47.894;11.424;2024-03-07T09:29:45;77.30;;;38.85;;
21562;SDS011;10942;47.894;11.424;2024-03-07T09:32:12;77.00;;;35.38;;
21562;SDS011;10942;47.894;11.424;2024-03-07T09:34:38;73.18;;;37.53;;
21562;SDS011;10942;47.894;11.424;2024-03-07T09:37:04;74.88;;;35.88;;
21562;SDS011;10942;47.894;11.424;2024-03-07T09:39:32;84.68;;;40.55;;
21562;SDS011;10942;47.894;11.424;2024-03-07T09:42:00;77.32;;;36.58;;
21562;SDS011;10942;47.894;11.424;2024-03-07T09:44:27;85.03;;;39.53;;
21562;SDS011;10942;47.894;11.424;2024-03-07T09:46:55;76.97;;;37.92;;
21562;SDS011;10942;47.894;11.424;2024-03-07T09:49:24;73.53;;;37.88;;
21562;SDS011;10942;47.894;11.424;2024-03-07T09:51:51;69.22;;;35.25;;
21562;SDS011;10942;47.894;11.424;2024-03-07T09:54:22;68.35;;;36.22;;
21562;SDS011;10942;47.894;11.424;2024-03-07T09:56:52;67.60;;;36.17;;
21562;SDS011;10942;47.894;11.424;2024-03-07T09:59:19;67.43;;;35.45;;
21562;SDS011;10942;47.894;11.424;2024-03-07T10:01:53;72.05;;;35.05;;
21562;SDS011;10942;47.894;11.424;2024-03-07T10:04:24;64.20;;;33.58;;
21562;SDS011;10942;47.894;11.424;2024-03-07T10:06:52;66.20;;;34.50;;
21562;SDS011;10942;47.894;11.424;2024-03-07T10:09:20;59.13;;;32.58;;
21562;SDS011;10942;47.894;11.424;2024-03-07T10:11:57;63.78;;;33.38;;
21562;SDS011;10942;47.894;11.424;2024-03-07T10:14:24;63.42;;;30.65;;
21562;SDS011;10942;47.894;11.424;2024-03-07T10:16:50;65.43;;;31.50;;
21562;SDS011;10942;47.894;11.424;2024-03-07T10:19:16;58.00;;;31.17;;
21562;SDS011;10942;47.894;11.424;2024-03-07T10:21:42;57.58;;;31.48;;
21562;SDS011;10942;47.894;11.424;2024-03-07T10:24:08;54.08;;;29.88;;
21562;SDS011;10942;47.894;11.424;2024-03-07T10:26:39;59.67;;;30.45;;
21562;SDS011;10942;47.894;11.424;2024-03-07T10:29:05;62.50;;;29.77;;
21562;SDS011;10942;47.894;11.424;2024-03-07T10:31:33;56.90;;;29.48;;
21562;SDS011;10942;47.894;11.424;2024-03-07T10:34:02;56.20;;;29.00;;
21562;SDS011;10942;47.894;11.424;2024-03-07T10:36:31;52.65;;;28.92;;
21562;SDS011;10942;47.894;11.424;2024-03-07T10:39:01;53.08;;;29.05;;
21562;SDS011;10942;47.894;11.424;2024-03-07T10:41:29;50.45;;;27.58;;
21562;SDS011;10942;47.894;11.424;2024-03-07T10:44:04;53.03;;;28.10;;
21562;SDS011;10942;47.894;11.424;2024-03-07T10:46:32;46.55;;;27.40;;
21562;SDS011;10942;47.894;11.424;2024-03-07T10:48:59;52.33;;;28.60;;
21562;SDS011;10942;47.894;11.424;2024-03-07T10:51:33;44.65;;;25.23;;
21562;SDS011;10942;47.894;11.424;2024-03-07T10:54:19;40.17;;;23.63;;
21562;SDS011;10942;47.894;11.424;2024-03-07T10:59:20;42.20;;;23.58;;
21562;SDS011;10942;47.894;11.424;2024-03-07T11:01:57;44.83;;;24.83;;
21562;SDS011;10942;47.894;11.424;2024-03-07T11:04:24;39.03;;;21.80;;
21562;SDS011;10942;47.894;11.424;2024-03-07T11:06:51;42.40;;;22.67;;
21562;SDS011;10942;47.894;11.424;2024-03-07T11:09:17;39.45;;;21.48;;
21562;SDS011;10942;47.894;11.424;2024-03-07T11:11:54;34.88;;;20.20;;
21562;SDS011;10942;47.894;11.424;2024-03-07T11:14:21;37.72;;;21.77;;
21562;SDS011;10942;47.894;11.424;2024-03-07T11:16:48;34.97;;;23.05;;
21562;SDS011;10942;47.894;11.424;2024-03-07T11:19:27;55.50;;;34.80;;
21562;SDS011;10942;47.894;11.424;2024-03-07T11:21:55;33.67;;;20.83;;
21562;SDS011;10942;47.894;11.424;2024-03-07T11:26:51;32.85;;;19.10;;
21562;SDS011;10942;47.894;11.424;2024-03-07T11:32:22;34.97;;;19.77;;
21562;SDS011;10942;47.894;11.424;2024-03-07T11:34:49;36.58;;;19.27;;
21562;SDS011;10942;47.894;11.424;2024-03-07T11:39:48;37.78;;;21.48;;
21562;SDS011;10942;47.894;11.424;2024-03-07T11:42:24;42.13;;;24.15;;
21562;SDS011;10942;47.894;11.424;2024-03-07T11:44:51;39.28;;;23.55;;
21562;SDS011;10942;47.894;11.424;2024-03-07T11:47:17;41.95;;;23.88;;
21562;SDS011;10942;47.894;11.424;2024-03-07T11:49:46;41.97;;;25.10;;
21562;SDS011;10942;47.894;11.424;2024-03-07T11:52:17;46.20;;;25.02;;
21562;SDS011;10942;47.894;11.424;2024-03-07T11:54:43;39.53;;;23.52;;
21562;SDS011;10942;47.894;11.424;2024-03-07T11:59:42;41.70;;;23.55;;
21562;SDS011;10942;47.894;11.424;2024-03-07T12:02:12;37.88;;;21.52;;
21562;SDS011;10942;47.894;11.424;2024-03-07T12:04:40;35.70;;;21.27;;
21562;SDS011;10942;47.894;11.424;2024-03-07T12:07:06;34.70;;;21.08;;
21562;SDS011;10942;47.894;11.424;2024-03-07T12:09:35;33.33;;;19.33;;
21562;SDS011;10942;47.894;11.424;2024-03-07T12:12:02;38.15;;;21.17;;
21562;SDS011;10942;47.894;11.424;2024-03-07T12:14:29;32.95;;;19.08;;
21562;SDS011;10942;47.894;11.424;2024-03-07T12:16:55;33.08;;;19.90;;
21562;SDS011;10942;47.894;11.424;2024-03-07T12:19:22;33.28;;;20.10;;
21562;SDS011;10942;47.894;11.424;2024-03-07T12:21:48;31.73;;;18.90;;
21562;SDS011;10942;47.894;11.424;2024-03-07T12:24:14;32.08;;;19.33;;
21562;SDS011;10942;47.894;11.424;2024-03-07T12:26:41;30.45;;;18.25;;
21562;SDS011;10942;47.894;11.424;2024-03-07T12:29:11;36.35;;;21.20;;
21562;SDS011;10942;47.894;11.424;2024-03-07T12:31:38;39.25;;;22.77;;
21562;SDS011;10942;47.894;11.424;2024-03-07T12:34:05;38.83;;;22.48;;
21562;SDS011;10942;47.894;11.424;2024-03-07T12:36:34;36.50;;;21.65;;
21562;SDS011;10942;47.894;11.424;2024-03-07T12:39:21;38.13;;;22.27;;
21562;SDS011;10942;47.894;11.424;2024-03-07T12:41:50;33.88;;;21.73;;
21562;SDS011;10942;47.894;11.424;2024-03-07T12:44:20;41.00;;;22.70;;
21562;SDS011;10942;47.894;11.424;2024-03-07T12:46:47;37.03;;;21.90;;
21562;SDS011;10942;47.894;11.424;2024-03-07T12:49:16;37.75;;;20.60;;
21562;SDS011;10942;47.894;11.424;2024-03-07T12:51:42;34.60;;;21.23;;
21562;SDS011;10942;47.894;11.424;2024-03-07T12:54:09;37.30;;;20.55;;
21562;SDS011;10942;47.894;11.424;2024-03-07T12:56:36;35.33;;;20.10;;
21562;SDS011;10942;47.894;11.424;2024-03-07T12:59:05;34.00;;;20.13;;
21562;SDS011;10942;47.894;11.424;2024-03-07T13:01:34;32.38;;;19.63;;
21562;SDS011;10942;47.894;11.424;2024-03-07T13:04:05;31.98;;;18.88;;
21562;SDS011;10942;47.894;11.424;2024-03-07T13:06:33;32.10;;;18.95;;
21562;SDS011;10942;47.894;11.424;2024-03-07T13:09:00;32.03;;;19.13;;
21562;SDS011;10942;47.894;11.424;2024-03-07T13:11:26;32.78;;;19.45;;
21562;SDS011;10942;47.894;11.424;2024-03-07T13:13:58;33.78;;;18.88;;
21562;SDS011;10942;47.894;11.424;2024-03-07T13:16:24;34.78;;;18.48;;
21562;SDS011;10942;47.894;11.424;2024-03-07T13:18:55;35.20;;;19.63;;
21562;SDS011;10942;47.894;11.424;2024-03-07T13:21:21;30.13;;;19.30;;
21562;SDS011;10942;47.894;11.424;2024-03-07T13:23:47;33.40;;;19.60;;
21562;SDS011;10942;47.894;11.424;2024-03-07T13:26:16;34.17;;;19.48;;
21562;SDS011;10942;47.894;11.424;2024-03-07T13:28:45;29.38;;;17.95;;
21562;SDS011;10942;47.894;11.424;2024-03-07T13:31:12;34.00;;;19.58;;
21562;SDS011;10942;47.894;11.424;2024-03-07T13:33:45;31.67;;;18.52;;
21562;SDS011;10942;47.894;11.424;2024-03-07T13:36:12;34.22;;;19.25;;
21562;SDS011;10942;47.894;11.424;2024-03-07T13:38:45;34.42;;;19.77;;
21562;SDS011;10942;47.894;11.424;2024-03-07T13:41:11;33.00;;;18.92;;
21562;SDS011;10942;47.894;11.424;2024-03-07T13:43:38;33.58;;;19.00;;
21562;SDS011;10942;47.894;11.424;2024-03-07T13:46:04;35.00;;;19.08;;
21562;SDS011;10942;47.894;11.424;2024-03-07T13:48:31;32.03;;;19.20;;
21562;SDS011;10942;47.894;11.424;2024-03-07T13:51:02;28.80;;;18.40;;
21562;SDS011;10942;47.894;11.424;2024-03-07T13:53:32;31.05;;;17.98;;
21562;SDS011;10942;47.894;11.424;2024-03-07T14:04:43;36.28;;;19.40;;
21562;SDS011;10942;47.894;11.424;2024-03-07T14:09:36;30.88;;;20.48;;
21562;SDS011;10942;47.894;11.424;2024-03-07T14:17:51;29.65;;;18.02;;
21562;SDS011;10942;47.894;11.424;2024-03-07T14:20:35;30.92;;;18.77;;
21562;SDS011;10942;47.894;11.424;2024-03-07T14:28:17;30.70;;;19.17;;
21562;SDS011;10942;47.894;11.424;2024-03-07T14:30:54;32.45;;;17.73;;
21562;SDS011;10942;47.894;11.424;2024-03-07T14:33:29;28.88;;;16.85;;
21562;SDS011;10942;47.894;11.424;2024-03-07T14:38:43;30.05;;;17.42;;
21562;SDS011;10942;47.894;11.424;2024-03-07T14:41:11;31.95;;;18.75;;
21562;SDS011;10942;47.894;11.424;2024-03-07T14:43:40;30.85;;;17.65;;
21562;SDS011;10942;47.894;11.424;2024-03-07T14:46:07;35.40;;;20.45;;
21562;SDS011;10942;47.894;11.424;2024-03-07T14:48:34;30.38;;;17.25;;
21562;SDS011;10942;47.894;11.424;2024-03-07T14:51:01;29.50;;;18.30;;
21562;SDS011;10942;47.894;11.424;2024-03-07T14:53:28;28.80;;;16.45;;